createdAt,value
2022-10-26T00:01:23.371Z,100079.13
2022-10-26T00:03:52.072Z,100082.31
2022-10-26T00:06:25.359Z,100084.53
2022-10-26T00:08:53.743Z,100083.84
2022-10-26T00:11:21.614Z,100085.66
2022-10-26T00:13:51.894Z,100075.28
2022-10-26T00:16:27.514Z,100092.81
2022-10-26T00:18:55.548Z,100081.41
2022-10-26T00:21:24.472Z,100086.59
2022-10-26T00:23:54.020Z,100085.44
2022-10-26T00:26:21.746Z,100082.19
2022-10-26T00:28:55.476Z,100080.03
2022-10-26T00:31:24.915Z,100073.34
2022-10-26T00:33:56.981Z,100078.13
2022-10-26T00:36:26.794Z,100074.31
2022-10-26T00:38:58.087Z,100076.34
2022-10-26T00:41:31.821Z,100068.53
2022-10-26T00:44:47.499Z,100066.22
2022-10-26T00:47:33.883Z,100056.63
2022-10-26T00:50:22.955Z,100052.63
2022-10-26T00:52:53.955Z,100052.72
2022-10-26T00:55:31.673Z,100046.13
2022-10-26T00:58:04.256Z,100046.91
2022-10-26T01:00:31.936Z,100041.63
2022-10-26T01:03:06.735Z,100036.00
2022-10-26T01:05:40.461Z,100037.19
2022-10-26T01:08:12.378Z,100037.56
2022-10-26T01:10:44.049Z,100052.16
2022-10-26T01:13:13.382Z,100041.63
2022-10-26T01:16:33.602Z,100045.50
2022-10-26T01:19:29.080Z,100051.84
2022-10-26T01:22:12.095Z,100057.41
2022-10-26T01:25:04.457Z,100054.09
2022-10-26T01:27:46.816Z,100052.69
2022-10-26T01:30:46.225Z,100056.63
2022-10-26T01:33:44.416Z,100056.47
2022-10-26T01:37:09.761Z,100056.47
2022-10-26T01:39:50.044Z,100054.88
2022-10-26T01:42:19.284Z,100053.16
2022-10-26T01:44:56.823Z,100063.00
2022-10-26T01:47:27.053Z,100055.53
2022-10-26T01:50:00.401Z,100062.31
2022-10-26T01:52:29.004Z,100060.25
2022-10-26T01:55:39.136Z,100061.50
2022-10-26T01:58:56.755Z,100046.69
2022-10-26T02:02:16.902Z,100056.53
2022-10-26T02:05:43.052Z,100064.03
2022-10-26T02:08:43.771Z,100058.31
2022-10-26T02:11:46.761Z,100057.06
2022-10-26T02:14:43.653Z,100050.66
2022-10-26T02:17:45.165Z,100060.22
2022-10-26T02:20:33.816Z,100056.56
2022-10-26T02:23:07.415Z,100057.47
2022-10-26T02:25:44.602Z,100053.00
2022-10-26T02:28:20.316Z,100051.03
2022-10-26T02:30:53.012Z,100053.56
2022-10-26T02:33:23.675Z,100061.63
2022-10-26T02:35:55.281Z,100068.97
2022-10-26T02:38:25.018Z,100070.25
2022-10-26T02:40:55.765Z,100068.72
2022-10-26T02:43:26.188Z,100072.34
2022-10-26T02:46:10.515Z,100074.28
2022-10-26T02:48:39.126Z,100081.59
2022-10-26T02:51:25.304Z,100082.94
2022-10-26T02:54:15.041Z,100089.47
2022-10-26T02:57:33.117Z,100091.25
2022-10-26T03:00:02.657Z,100090.25
2022-10-26T03:02:31.190Z,100084.94
2022-10-26T03:05:20.264Z,100093.53
2022-10-26T03:07:47.970Z,100094.28
2022-10-26T03:10:15.843Z,100088.53
2022-10-26T03:12:44.577Z,100089.41
2022-10-26T03:15:12.438Z,100104.25
2022-10-26T03:17:41.057Z,100109.94
2022-10-26T03:20:11.321Z,100113.19
2022-10-26T03:22:40.025Z,100111.94
2022-10-26T03:28:04.944Z,100109.84
2022-10-26T03:30:33.272Z,100101.56
2022-10-26T03:33:01.517Z,100121.19
2022-10-26T03:35:30.177Z,100118.81
2022-10-26T03:37:59.644Z,100123.16
2022-10-26T03:40:28.228Z,100125.34
2022-10-26T03:42:57.818Z,100116.09
2022-10-26T03:45:26.445Z,100130.66
2022-10-26T03:47:55.019Z,100132.44
2022-10-26T03:50:23.912Z,100129.00
2022-10-26T03:52:52.153Z,100129.19
2022-10-26T03:55:21.013Z,100126.56
2022-10-26T03:57:49.623Z,100129.03
2022-10-26T04:00:19.394Z,100127.25
2022-10-26T04:02:57.755Z,100137.47
2022-10-26T04:05:29.709Z,100132.91
2022-10-26T04:08:03.237Z,100129.22
2022-10-26T04:10:33.261Z,100129.88
2022-10-26T04:13:02.158Z,100150.63
2022-10-26T04:15:31.055Z,100145.28
2022-10-26T04:18:02.426Z,100142.88
2022-10-26T04:20:33.580Z,100131.94
2022-10-26T04:23:06.172Z,100134.53
2022-10-26T04:25:35.111Z,100132.31
2022-10-26T04:28:07.723Z,100144.22
2022-10-26T04:30:38.241Z,100148.34
2022-10-26T04:33:07.689Z,100152.03
2022-10-26T04:35:37.187Z,100140.56
2022-10-26T04:38:08.242Z,100137.25
2022-10-26T04:40:38.349Z,100147.44
2022-10-26T04:43:07.795Z,100149.13
2022-10-26T04:45:37.230Z,100151.09
2022-10-26T04:48:11.389Z,100161.47
2022-10-26T04:50:41.448Z,100151.09
2022-10-26T04:53:11.430Z,100151.28
2022-10-26T04:55:40.038Z,100158.69
2022-10-26T04:58:09.043Z,100162.31
2022-10-26T05:00:38.500Z,100148.69
2022-10-26T05:03:08.277Z,100149.25
2022-10-26T05:05:37.940Z,100153.00
2022-10-26T05:08:07.780Z,100143.53
2022-10-26T05:10:37.101Z,100147.75
2022-10-26T05:13:06.611Z,100151.56
2022-10-26T05:15:35.255Z,100137.13
2022-10-26T05:18:06.402Z,100150.88
2022-10-26T05:20:36.930Z,100149.25
2022-10-26T05:23:10.903Z,100159.00
2022-10-26T05:25:39.800Z,100153.31
2022-10-26T05:28:15.789Z,100155.88
2022-10-26T05:30:46.780Z,100152.19
2022-10-26T05:33:16.495Z,100143.63
2022-10-26T05:35:45.080Z,100153.59
2022-10-26T05:38:17.709Z,100150.00
2022-10-26T05:40:53.538Z,100156.13
2022-10-26T05:43:24.683Z,100152.47
2022-10-26T05:45:55.178Z,100159.31
2022-10-26T05:48:24.670Z,100155.06
2022-10-26T05:50:53.370Z,100163.84
2022-10-26T05:53:22.086Z,100157.34
2022-10-26T05:55:52.055Z,100155.97
2022-10-26T05:58:21.985Z,100170.34
2022-10-26T06:01:32.182Z,100168.28
2022-10-26T06:04:48.062Z,100168.53
2022-10-26T06:07:23.228Z,100170.03
2022-10-26T06:09:53.286Z,100161.53
2022-10-26T06:12:23.435Z,100174.44
2022-10-26T06:14:52.731Z,100182.19
2022-10-26T06:18:14.124Z,100177.84
2022-10-26T06:21:15.488Z,100184.66
2022-10-26T06:24:12.988Z,100187.09
2022-10-26T06:27:02.566Z,100189.84
2022-10-26T06:30:04.794Z,100191.78
2022-10-26T06:32:34.299Z,100183.94
2022-10-26T06:35:34.543Z,100211.91
2022-10-26T06:38:12.341Z,100215.69
2022-10-26T06:40:44.194Z,100215.97
2022-10-26T06:43:31.338Z,100221.03
2022-10-26T06:46:24.286Z,100229.03
2022-10-26T06:49:16.391Z,100230.59
2022-10-26T06:52:02.303Z,100232.94
2022-10-26T06:54:52.380Z,100242.09
2022-10-26T06:57:30.175Z,100247.81
2022-10-26T07:00:15.551Z,100252.41
2022-10-26T07:02:44.205Z,100256.72
2022-10-26T07:05:13.234Z,100251.34
2022-10-26T07:07:47.881Z,100240.63
2022-10-26T07:10:17.689Z,100237.28
2022-10-26T07:12:46.650Z,100241.47
2022-10-26T07:15:16.271Z,100236.53
2022-10-26T07:17:49.947Z,100236.25
2022-10-26T07:20:22.719Z,100242.16
2022-10-26T07:22:59.449Z,100244.59
2022-10-26T07:25:28.806Z,100250.78
2022-10-26T07:27:59.846Z,100243.06
2022-10-26T07:30:34.710Z,100246.69
2022-10-26T07:33:08.268Z,100240.56
2022-10-26T07:35:37.232Z,100239.13
2022-10-26T07:38:09.674Z,100247.22
2022-10-26T07:40:41.618Z,100244.81
2022-10-26T07:43:10.193Z,100234.06
2022-10-26T07:45:40.692Z,100241.72
2022-10-26T07:48:09.246Z,100240.91
2022-10-26T07:50:38.606Z,100241.38
2022-10-26T07:53:07.233Z,100238.13
2022-10-26T07:55:36.628Z,100237.56
2022-10-26T07:58:05.461Z,100237.03
2022-10-26T08:00:34.214Z,100241.09
2022-10-26T08:03:04.854Z,100241.38
2022-10-26T08:05:35.909Z,100249.66
2022-10-26T08:08:05.832Z,100249.28
2022-10-26T08:10:35.409Z,100251.59
2022-10-26T08:13:06.719Z,100250.03
2022-10-26T08:15:35.263Z,100251.06
2022-10-26T08:18:03.103Z,100249.94
2022-10-26T08:20:37.963Z,100247.97
2022-10-26T08:23:06.616Z,100251.59
2022-10-26T08:25:36.260Z,100242.94
2022-10-26T08:28:06.014Z,100247.97
2022-10-26T08:30:37.832Z,100235.91
2022-10-26T08:33:10.085Z,100248.03
2022-10-26T08:35:38.711Z,100243.25
2022-10-26T08:38:07.342Z,100246.72
2022-10-26T08:40:43.362Z,100242.41
2022-10-26T08:44:02.184Z,100241.91
2022-10-26T08:46:41.811Z,100237.94
2022-10-26T08:49:33.042Z,100246.66
2022-10-26T08:52:03.743Z,100246.06
2022-10-26T08:54:51.318Z,100246.53
2022-10-26T08:57:30.757Z,100248.56
2022-10-26T09:00:11.454Z,100239.63
2022-10-26T09:02:39.276Z,100236.28
2022-10-26T09:05:37.018Z,100247.16
2022-10-26T09:08:55.799Z,100249.22
2022-10-26T09:11:57.621Z,100254.72
2022-10-26T09:14:54.364Z,100249.56
2022-10-26T09:17:35.556Z,100255.34
2022-10-26T09:20:40.899Z,100248.78
2022-10-26T09:23:48.420Z,100249.09
2022-10-26T09:26:39.190Z,100251.97
2022-10-26T09:29:16.965Z,100261.25
2022-10-26T09:31:51.013Z,100251.81
2022-10-26T09:34:55.336Z,100265.38
2022-10-26T09:37:34.364Z,100261.94
2022-10-26T09:40:23.368Z,100265.38
2022-10-26T09:43:19.060Z,100267.69
2022-10-26T09:45:52.658Z,100269.22
2022-10-26T09:48:36.747Z,100268.38
2022-10-26T09:51:06.388Z,100267.22
2022-10-26T09:53:34.940Z,100271.78
2022-10-26T09:56:14.406Z,100271.75
2022-10-26T09:58:59.587Z,100270.13
2022-10-26T10:01:38.393Z,100273.56
2022-10-26T10:04:23.103Z,100270.94
2022-10-26T10:07:14.418Z,100273.56
2022-10-26T10:09:44.251Z,100269.16
2022-10-26T10:12:22.111Z,100275.19
2022-10-26T10:15:01.133Z,100272.72
2022-10-26T10:17:29.547Z,100275.69
2022-10-26T10:20:13.265Z,100279.84
2022-10-26T10:23:02.394Z,100284.19
2022-10-26T10:25:38.186Z,100274.56
2022-10-26T10:28:27.940Z,100269.75
2022-10-26T10:31:23.068Z,100273.41
2022-10-26T10:33:53.084Z,100269.31
2022-10-26T10:36:29.803Z,100266.59
2022-10-26T10:39:00.033Z,100271.97
2022-10-26T10:41:40.257Z,100269.88
2022-10-26T10:44:32.105Z,100276.59
2022-10-26T10:47:07.280Z,100270.19
2022-10-26T10:49:39.239Z,100269.47
2022-10-26T10:52:08.766Z,100274.22
2022-10-26T10:54:42.100Z,100273.53
2022-10-26T10:58:02.713Z,100273.44
2022-10-26T11:00:38.120Z,100265.69
2022-10-26T11:03:40.150Z,100271.41
2022-10-26T11:06:24.197Z,100269.25
2022-10-26T11:09:15.349Z,100269.00
2022-10-26T11:12:03.299Z,100264.94
2022-10-26T11:14:57.405Z,100264.09
2022-10-26T11:17:36.503Z,100267.84
2022-10-26T11:20:22.288Z,100266.44
2022-10-26T11:26:17.296Z,100271.53
2022-10-26T11:29:22.056Z,100268.53
2022-10-26T11:32:14.006Z,100268.47
2022-10-26T11:35:22.225Z,100267.69
2022-10-26T11:38:28.258Z,100260.06
2022-10-26T11:41:38.958Z,100266.06
2022-10-26T11:44:15.556Z,100257.19
2022-10-26T11:47:42.060Z,100268.78
2022-10-26T11:50:25.787Z,100265.41
2022-10-26T11:53:22.330Z,100255.34
2022-10-26T11:55:58.937Z,100269.56
2022-10-26T11:58:29.255Z,100268.88
2022-10-26T12:01:14.733Z,100256.19
2022-10-26T12:03:53.476Z,100263.72
2022-10-26T12:06:31.445Z,100259.13
2022-10-26T12:09:22.505Z,100258.59
2022-10-26T12:12:21.521Z,100258.91
2022-10-26T12:18:55.621Z,100256.09
2022-10-26T12:21:36.653Z,100249.91
2022-10-26T12:24:26.955Z,100240.31
2022-10-26T12:27:06.555Z,100246.34
2022-10-26T12:29:47.757Z,100253.56
2022-10-26T12:32:36.483Z,100250.88
2022-10-26T12:35:43.928Z,100248.84
2022-10-26T12:38:26.154Z,100253.41
2022-10-26T12:41:07.749Z,100246.25
2022-10-26T12:43:41.201Z,100245.75
2022-10-26T12:46:15.856Z,100243.84
2022-10-26T12:48:51.153Z,100244.97
2022-10-26T12:51:26.681Z,100242.13
2022-10-26T12:54:04.462Z,100243.09
2022-10-26T12:57:24.184Z,100242.31
2022-10-26T13:00:06.064Z,100244.28
2022-10-26T13:02:53.682Z,100244.44
2022-10-26T13:05:53.974Z,100235.41
2022-10-26T13:08:22.606Z,100243.06
2022-10-26T13:11:27.670Z,100240.31
2022-10-26T13:14:07.891Z,100235.25
2022-10-26T13:16:36.589Z,100236.84
2022-10-26T13:19:05.112Z,100240.81
2022-10-26T13:21:48.806Z,100232.00
2022-10-26T13:24:28.360Z,100250.28
2022-10-26T13:27:16.415Z,100243.06
2022-10-26T13:30:05.152Z,100249.63
2022-10-26T13:32:56.053Z,100249.09
2022-10-26T13:35:26.449Z,100244.91
2022-10-26T13:37:57.582Z,100255.41
2022-10-26T13:40:29.663Z,100245.47
2022-10-26T13:43:04.798Z,100258.09
2022-10-26T13:45:56.924Z,100247.06
2022-10-26T13:48:41.593Z,100258.03
2022-10-26T13:51:23.850Z,100239.81
2022-10-26T13:53:59.609Z,100243.44
2022-10-26T13:56:47.782Z,100247.88
2022-10-26T13:59:16.599Z,100234.03
2022-10-26T14:01:45.402Z,100240.59
2022-10-26T14:04:32.072Z,100235.81
2022-10-26T14:07:00.495Z,100229.38
2022-10-26T14:09:31.282Z,100232.81
2022-10-26T14:12:02.776Z,100236.44
2022-10-26T14:14:39.617Z,100239.81
2022-10-26T14:17:22.015Z,100243.44
2022-10-26T14:19:52.673Z,100231.97
2022-10-26T14:22:27.995Z,100226.59
2022-10-26T14:25:01.888Z,100225.91
2022-10-26T14:27:39.548Z,100231.06
2022-10-26T14:30:31.616Z,100229.47
2022-10-26T14:33:01.904Z,100236.66
2022-10-26T14:35:42.203Z,100232.72
2022-10-26T14:38:36.689Z,100232.72
2022-10-26T14:41:04.473Z,100235.56
2022-10-26T14:43:33.179Z,100244.31
2022-10-26T14:46:02.084Z,100239.38
2022-10-26T14:48:36.071Z,100243.38
2022-10-26T14:51:21.331Z,100248.53
2022-10-26T14:53:53.785Z,100243.63
2022-10-26T14:56:35.697Z,100253.97
2022-10-26T14:59:30.246Z,100246.09
2022-10-26T15:02:15.735Z,100248.69
2022-10-26T15:05:01.827Z,100244.75
2022-10-26T15:07:38.720Z,100251.28
2022-10-26T15:10:36.129Z,100246.72
2022-10-26T15:13:21.482Z,100249.03
2022-10-26T15:15:56.099Z,100254.47
2022-10-26T15:18:35.190Z,100263.81
2022-10-26T15:21:36.868Z,100258.47
2022-10-26T15:24:32.070Z,100253.44
2022-10-26T15:27:04.445Z,100264.59
2022-10-26T15:29:51.870Z,100273.53
2022-10-26T15:32:33.130Z,100277.56
2022-10-26T15:35:31.954Z,100274.41
2022-10-26T15:38:01.593Z,100272.03
2022-10-26T15:40:32.167Z,100272.63
2022-10-26T15:43:02.092Z,100281.69
2022-10-26T15:45:52.185Z,100285.19
2022-10-26T15:48:29.173Z,100284.09
2022-10-26T15:50:59.381Z,100279.41
2022-10-26T15:53:37.029Z,100281.88
2022-10-26T15:56:15.760Z,100277.97
2022-10-26T15:58:45.617Z,100283.38
2022-10-26T16:01:36.494Z,100285.59
2022-10-26T16:04:04.512Z,100286.84
2022-10-26T16:06:35.312Z,100291.25
2022-10-26T16:09:16.256Z,100286.00
2022-10-26T16:11:45.078Z,100300.06
2022-10-26T16:14:13.265Z,100298.38
2022-10-26T16:16:43.908Z,100298.38
2022-10-26T16:22:07.325Z,100295.00
2022-10-26T16:24:36.941Z,100301.34
2022-10-26T16:27:06.711Z,100292.97
2022-10-26T16:29:36.269Z,100302.31
2022-10-26T16:32:08.134Z,100308.31
2022-10-26T16:34:35.945Z,100311.34
2022-10-26T16:37:38.563Z,100306.09
2022-10-26T16:40:51.179Z,100310.84
2022-10-26T16:43:27.890Z,100300.50
2022-10-26T16:46:06.089Z,100280.25
2022-10-26T16:48:56.022Z,100291.72
2022-10-26T16:51:28.844Z,100318.03
2022-10-26T16:54:03.107Z,100322.38
2022-10-26T16:56:35.490Z,100309.53
2022-10-26T16:59:09.628Z,100318.59
2022-10-26T17:01:41.875Z,100315.13
2022-10-26T17:04:11.266Z,100320.97
2022-10-26T17:06:40.729Z,100329.41
2022-10-26T17:09:11.642Z,100331.03
2022-10-26T17:11:40.284Z,100324.84
2022-10-26T17:14:09.815Z,100335.38
2022-10-26T17:16:40.535Z,100340.44
2022-10-26T17:19:12.277Z,100340.34
2022-10-26T17:21:40.033Z,100347.38
2022-10-26T17:24:08.089Z,100345.19
2022-10-26T17:26:36.743Z,100354.28
2022-10-26T17:29:06.397Z,100343.06
2022-10-26T17:31:35.093Z,100345.31
2022-10-26T17:34:30.669Z,100341.44
2022-10-26T17:37:00.094Z,100346.63
2022-10-26T17:39:28.508Z,100350.19
2022-10-26T17:41:57.000Z,100348.78
2022-10-26T17:44:25.020Z,100363.13
2022-10-26T17:46:54.500Z,100362.72
2022-10-26T17:49:26.843Z,100368.34
2022-10-26T17:51:58.818Z,100364.72
2022-10-26T17:54:31.322Z,100366.97
2022-10-26T17:57:03.562Z,100374.75
2022-10-26T17:59:33.045Z,100387.59
2022-10-26T18:02:00.845Z,100385.44
2022-10-26T18:04:30.601Z,100388.25
2022-10-26T18:07:00.064Z,100386.72
2022-10-26T18:09:30.042Z,100384.97
2022-10-26T18:12:04.665Z,100390.28
2022-10-26T18:14:34.537Z,100387.81
2022-10-26T18:17:02.311Z,100392.13
2022-10-26T18:19:31.843Z,100393.09
2022-10-26T18:22:01.464Z,100391.25
2022-10-26T18:24:29.232Z,100392.69
2022-10-26T18:26:57.091Z,100392.03
2022-10-26T18:29:26.767Z,100398.00
2022-10-26T18:31:54.534Z,100387.97
2022-10-26T18:34:23.818Z,100376.16
2022-10-26T18:37:02.578Z,100382.63
2022-10-26T18:39:30.384Z,100383.47
2022-10-26T18:41:58.125Z,100403.00
2022-10-26T18:44:30.193Z,100402.66
2022-10-26T18:46:57.930Z,100402.22
2022-10-26T18:49:27.620Z,100391.06
2022-10-26T18:51:55.340Z,100409.50
2022-10-26T18:54:27.197Z,100409.31
2022-10-26T18:56:59.125Z,100391.31
2022-10-26T18:59:30.396Z,100400.94
2022-10-26T19:02:00.275Z,100399.00
2022-10-26T19:04:28.639Z,100399.50
2022-10-26T19:06:56.483Z,100408.13
2022-10-26T19:09:25.943Z,100408.56
2022-10-26T19:11:58.999Z,100411.94
2022-10-26T19:14:31.006Z,100415.34
2022-10-26T19:17:00.471Z,100412.75
2022-10-26T19:19:29.996Z,100422.28
2022-10-26T19:21:59.480Z,100421.81
2022-10-26T19:24:29.089Z,100428.38
2022-10-26T19:26:59.625Z,100430.41
2022-10-26T19:29:29.230Z,100434.16
2022-10-26T19:31:59.340Z,100433.06
2022-10-26T19:34:29.703Z,100434.84
2022-10-26T19:36:59.170Z,100431.16
2022-10-26T19:39:29.365Z,100438.50
2022-10-26T19:41:57.119Z,100434.25
2022-10-26T19:44:26.714Z,100428.56
2022-10-26T19:46:56.364Z,100438.13
2022-10-26T19:49:26.142Z,100431.34
2022-10-26T19:52:01.646Z,100432.53
2022-10-26T19:54:40.389Z,100439.44
2022-10-26T19:57:10.002Z,100445.97
2022-10-26T19:59:42.169Z,100461.03
2022-10-26T20:02:10.134Z,100446.97
2022-10-26T20:04:40.380Z,100460.16
2022-10-26T20:07:10.074Z,100460.47
2022-10-26T20:09:42.028Z,100468.25
2022-10-26T20:12:12.864Z,100466.19
2022-10-26T20:14:43.820Z,100469.50
2022-10-26T20:17:11.960Z,100470.38
2022-10-26T20:19:41.382Z,100470.03
2022-10-26T20:22:10.777Z,100476.13
2022-10-26T20:24:40.186Z,100479.50
2022-10-26T20:27:10.630Z,100470.47
2022-10-26T20:29:40.058Z,100483.19
2022-10-26T20:32:10.798Z,100471.38
2022-10-26T20:34:42.569Z,100484.47
2022-10-26T20:37:15.579Z,100486.38
2022-10-26T20:39:44.929Z,100481.00
2022-10-26T20:42:27.196Z,100486.13
2022-10-26T20:45:31.851Z,100495.13
2022-10-26T20:48:02.154Z,100485.28
2022-10-26T20:50:32.371Z,100480.59
2022-10-26T20:53:28.449Z,100485.81
2022-10-26T20:56:06.092Z,100489.19
2022-10-26T20:58:58.724Z,100489.59
2022-10-26T21:01:34.988Z,100500.38
2022-10-26T21:04:05.177Z,100500.34
2022-10-26T21:06:40.348Z,100496.03
2022-10-26T21:09:10.060Z,100500.19
2022-10-26T21:11:39.621Z,100501.09
2022-10-26T21:14:09.043Z,100504.22
2022-10-26T21:16:38.486Z,100510.72
2022-10-26T21:19:08.507Z,100512.03
2022-10-26T21:21:37.953Z,100514.09
2022-10-26T21:24:08.049Z,100503.69
2022-10-26T21:26:36.750Z,100503.38
2022-10-26T21:29:06.162Z,100505.81
2022-10-26T21:31:35.644Z,100504.84
2022-10-26T21:34:04.825Z,100511.25
2022-10-26T21:36:33.715Z,100509.59
2022-10-26T21:39:02.424Z,100504.41
2022-10-26T21:41:31.828Z,100503.31
2022-10-26T21:44:09.018Z,100507.63
2022-10-26T21:46:39.778Z,100510.03
2022-10-26T21:49:09.384Z,100511.75
2022-10-26T21:51:38.853Z,100515.41
2022-10-26T21:54:08.282Z,100512.56
2022-10-26T21:56:36.897Z,100525.53
2022-10-26T21:59:07.397Z,100514.28
2022-10-26T22:01:37.618Z,100520.78
2022-10-26T22:04:07.137Z,100524.25
2022-10-26T22:06:42.893Z,100517.94
2022-10-26T22:09:11.527Z,100527.88
2022-10-26T22:11:41.184Z,100529.94
2022-10-26T22:14:09.838Z,100533.44
2022-10-26T22:16:39.272Z,100544.38
2022-10-26T22:19:09.680Z,100549.09
2022-10-26T22:21:41.607Z,100541.28
2022-10-26T22:24:11.376Z,100535.56
2022-10-26T22:26:40.889Z,100532.66
2022-10-26T22:29:10.637Z,100538.06
2022-10-26T22:31:41.134Z,100531.16
2022-10-26T22:34:16.639Z,100532.75
2022-10-26T22:36:45.690Z,100534.56
2022-10-26T22:39:14.555Z,100535.19
2022-10-26T22:41:43.941Z,100545.31
2022-10-26T22:44:12.622Z,100533.38
2022-10-26T22:46:41.201Z,100531.31
2022-10-26T22:49:12.945Z,100547.84
2022-10-26T22:51:41.576Z,100541.38
2022-10-26T22:54:13.073Z,100532.78
2022-10-26T22:56:45.592Z,100543.44
2022-10-26T22:59:15.007Z,100549.19
2022-10-26T23:01:43.820Z,100557.66
2022-10-26T23:04:13.877Z,100550.94
2022-10-26T23:06:43.461Z,100551.00
2022-10-26T23:09:12.050Z,100556.94
2022-10-26T23:11:41.484Z,100545.78
2022-10-26T23:14:10.341Z,100551.06
2022-10-26T23:16:39.760Z,100554.06
2022-10-26T23:19:10.008Z,100557.59
2022-10-26T23:21:39.880Z,100547.28
2022-10-26T23:24:09.586Z,100544.91
2022-10-26T23:26:39.049Z,100550.59
2022-10-26T23:29:07.849Z,100541.28
2022-10-26T23:31:37.297Z,100548.53
2022-10-26T23:34:06.701Z,100550.28
2022-10-26T23:36:36.129Z,100552.03
2022-10-26T23:39:05.597Z,100558.91
2022-10-26T23:41:35.066Z,100546.91
2022-10-26T23:44:04.993Z,100551.91
2022-10-26T23:46:34.480Z,100558.66
2022-10-26T23:49:03.975Z,100562.34
2022-10-26T23:51:33.472Z,100552.56
2022-10-26T23:54:02.977Z,100553.88
2022-10-26T23:56:32.583Z,100539.63
2022-10-26T23:59:06.043Z,100539.63
